Wailea, Hawaii
Current Conditions -  °F | °C
As of 3:54 PM on Friday 19 Dec 2014 (Local Time) from PHOG Reporting Station
Scattered Clouds Scattered Clouds  
Wind Chill: 82°   Ceiling: Unl
Heat Index: 84°   Visibility: 10mi
Dew Point: 65°   Wind: 18mph
Humidity: 56%   Direction: 70°ENE
Pressure: 29.96"   Gusts: 26mph
Location:  20.7651°N, 156.425°W
Report Text: PHOG 200154Z 07016G23KT 10SM SCT035 28/18 A2996 RMK AO2 SLP150 T02780183
Loading
Personal Weather Stations






























Interactive Weather Map New forecast layout! Learn more

10-Day Weather Forecast

Advertisements
Track Severe Weather on mobile